Helena, AL

1:12 PM CDT on August 30, 2015 (GMT -0500)
Loveless Park | | Change Station
CLOSE
Current Station
Personal Weather Station
Location: Bessemer, AL
Elevation: 627 ft
Nearby Weather Stations

Elev 627 ft 33.32 °N, 86.99 °W | Updated 16 seconds ago

Overcast
Overcast
72.5 °F
Feels Like 72.5 °F
N
1.6
Wind Variable Wind from NNW
Gusts 1.6 mph

Today
High -- | Low -- °F
--% Chance of Precip.
Yesterday
High -- | Low -- °F
Precip. -- in
6:20 AM 7:15 PM
Full, 99% visible
Pressure 30.08 in
Visibility 10.0 miles
Clouds Scattered Clouds 2100 ft
Overcast 5000 ft
Dew Point 71 °F
Humidity 95%
Rainfall 0.00 in
Snow Depth Not available.
UV 3 out of 12
Pollen 8.10 out of 12
Air Quality Not available.
Flu Activity Not available.
METAR KEET 301753Z AUTO 33003KT 10SM SCT021 OVC050 24/21 A3010 RMK AO2 SLP186 60000 T02440211 10250 20211 58004
Pressure 30.08 in
Visibility 10.0 miles
Clouds Scattered Clouds 2100 ft
Overcast 5000 ft
Dew Point 71 °F
Humidity 95%
Rainfall 0.00 in
Snow Depth Not available.
UV 3 out of 12
Pollen 8.10 out of 12
Air Quality Not available.
Flu Activity Not available.
METAR KEET 301753Z AUTO 33003KT 10SM SCT021 OVC050 24/21 A3010 RMK AO2 SLP186 60000 T02440211 10250 20211 58004

10-Day Weather Forecast

×

Almanac

Astronomy

Aug. 30, 2015 Rise Set
Actual Time
Civil Twilight
Nautical Twilight
Astronomical Twilight
Moon
Length of Visible Light
Length of Day
Tomorrow will be .
, % of the Moon is Illuminated

Today's Extremes

State Highs State Lows

Community

WunderPhotos

Upload Photos

1,851,027 photos uploaded!

WunderBlogs® & News

Nearby

Air Quality

  Air Quality AQ Index Pollutant
Not available.

Snow Depth

Station Depth Elevation

Earthquake Activity

City Distance Mag. Time & Date
Minimum magnitude displayed is 2.5.

Coastal Water Temperatures

Place Temperature

Stations

Nearby Weather Stations

Station Location Temp. Windchill Dew Point Humidity Wind Precip. Elev Updated Type